createdAt,value
2022-12-18T00:00:46.237Z,13.9
2022-12-18T00:05:46.233Z,13.9
2022-12-18T00:15:46.336Z,13.9
2022-12-18T00:40:46.261Z,14
2022-12-18T00:50:46.221Z,14
2022-12-18T00:55:46.226Z,14
2022-12-18T01:00:46.336Z,14.1
2022-12-18T01:05:46.227Z,14
2022-12-18T01:10:46.233Z,13.9
2022-12-18T01:15:46.245Z,14.1
2022-12-18T01:25:46.267Z,14.1
2022-12-18T01:35:46.241Z,14.1
2022-12-18T01:40:46.241Z,14.1
2022-12-18T02:00:46.283Z,14.1
2022-12-18T02:05:46.245Z,14.1
2022-12-18T02:15:46.367Z,14.1
2022-12-18T02:20:46.245Z,14.1
2022-12-18T02:30:46.322Z,14.2
2022-12-18T02:40:46.367Z,14.1
2022-12-18T02:45:46.283Z,14.1
2022-12-18T02:50:46.252Z,14.1
2022-12-18T03:00:46.367Z,14.2
2022-12-18T03:15:46.242Z,14.2
2022-12-18T03:25:46.357Z,14.2
2022-12-18T03:35:46.263Z,14.2
2022-12-18T03:45:46.446Z,14.2
2022-12-18T03:50:46.249Z,14.3
2022-12-18T03:55:46.250Z,14.3
2022-12-18T04:05:46.353Z,14.3
2022-12-18T04:10:46.248Z,14.3
2022-12-18T04:15:46.313Z,14.3
2022-12-18T04:35:46.381Z,14.4
2022-12-18T04:45:46.244Z,14.4
2022-12-18T04:50:46.257Z,14.4
2022-12-18T05:00:46.368Z,14.3
2022-12-18T05:10:46.253Z,14.3
2022-12-18T05:20:46.375Z,14.3
2022-12-18T05:30:46.258Z,14.3
2022-12-18T05:55:46.364Z,14.4
2022-12-18T06:00:46.251Z,14.4
2022-12-18T06:05:46.270Z,14.4
2022-12-18T06:15:46.440Z,14.4
2022-12-18T06:20:46.266Z,14.4
2022-12-18T06:25:46.267Z,14.4
2022-12-18T06:30:46.260Z,14.4
2022-12-18T06:35:46.371Z,14.3
2022-12-18T06:45:46.352Z,14.3
2022-12-18T06:55:46.397Z,14.3
2022-12-18T07:10:48.927Z,14.4
2022-12-18T07:15:46.389Z,14.3
2022-12-18T07:25:46.288Z,14.5
2022-12-18T07:30:46.267Z,14.4
2022-12-18T07:40:46.389Z,14.6
2022-12-18T07:45:46.319Z,14.6
2022-12-18T07:50:46.269Z,14.6
2022-12-18T08:00:46.398Z,14.5
2022-12-18T08:05:46.280Z,14.4
2022-12-18T08:30:46.401Z,14.5
2022-12-18T08:35:46.360Z,14.5
2022-12-18T08:40:46.269Z,14.5
2022-12-18T08:50:46.398Z,14.5
2022-12-18T09:00:46.264Z,13.9
2022-12-18T09:10:46.382Z,14.4
2022-12-18T09:15:46.279Z,14.1
2022-12-18T09:25:46.269Z,14.4
2022-12-18T09:30:46.590Z,14.4
2022-12-18T09:50:46.393Z,14.4
2022-12-18T09:55:46.282Z,14.4
2022-12-18T10:05:46.264Z,14.4
2022-12-18T10:10:46.398Z,14.5
2022-12-18T10:15:46.380Z,14.4
2022-12-18T10:25:46.284Z,14.3
2022-12-18T10:35:46.409Z,14.3
2022-12-18T10:45:46.280Z,14.3
2022-12-18T10:51:10.290Z,14.3
2022-12-18T11:05:46.390Z,14.3
2022-12-18T11:15:46.365Z,14.4
2022-12-18T11:20:46.287Z,14.4
2022-12-18T11:30:46.386Z,14.4
2022-12-18T11:35:46.291Z,14.4
2022-12-18T11:45:46.272Z,14.2
2022-12-18T11:55:46.427Z,14.2
2022-12-18T12:05:46.279Z,14.2
2022-12-18T12:25:46.396Z,14.2
2022-12-18T12:35:46.293Z,14.3
2022-12-18T12:40:54.896Z,14.2
2022-12-18T12:50:46.397Z,14.2
2022-12-18T12:55:46.297Z,14.2
2022-12-18T13:05:46.312Z,14.2
2022-12-18T13:10:46.409Z,14.2
2022-12-18T13:20:52.512Z,14.2
2022-12-18T13:40:46.420Z,14.2
2022-12-18T13:50:46.287Z,14.2
2022-12-18T13:55:46.318Z,14.3
2022-12-18T14:05:46.420Z,14.1
2022-12-18T14:10:48.380Z,14
2022-12-18T14:20:52.125Z,14.1
2022-12-18T14:25:46.424Z,14
2022-12-18T14:35:46.293Z,14
2022-12-18T14:40:46.304Z,14.1
2022-12-18T15:00:46.417Z,13.9
2022-12-18T15:05:46.319Z,13.9
2022-12-18T15:15:46.422Z,13.8
2022-12-18T15:25:52.231Z,13.8
2022-12-18T15:35:47.303Z,13.8
2022-12-18T15:45:46.364Z,13.8
2022-12-18T15:50:46.305Z,13.9
2022-12-18T15:55:46.435Z,13.6
2022-12-18T16:20:46.425Z,13.9
2022-12-18T16:30:46.415Z,13.9
2022-12-18T16:35:46.297Z,13.9
2022-12-18T16:40:46.413Z,13.9
2022-12-18T16:45:46.291Z,13.9
2022-12-18T16:50:46.296Z,13.8
2022-12-18T17:00:46.431Z,13.8
2022-12-18T17:10:46.311Z,13.8
2022-12-18T17:35:46.419Z,13.8
2022-12-18T17:40:46.693Z,13.8
2022-12-18T17:45:46.308Z,13.9
2022-12-18T17:50:46.312Z,13.8
2022-12-18T18:00:46.419Z,13.8
2022-12-18T18:05:46.315Z,13.8
2022-12-18T18:15:46.349Z,13.9
2022-12-18T18:25:46.422Z,13.8
2022-12-18T18:30:46.318Z,13.8
2022-12-18T18:55:51.731Z,13.9
2022-12-18T19:05:47.684Z,13.7
2022-12-18T19:10:46.322Z,13.7
2022-12-18T19:20:46.441Z,13.6
2022-12-18T19:30:46.308Z,13.6
2022-12-18T19:35:46.322Z,13.6
2022-12-18T19:45:46.476Z,13.6
2022-12-18T19:50:46.331Z,13.5
2022-12-18T20:10:46.462Z,13.5
2022-12-18T20:20:46.640Z,13.5
2022-12-18T20:25:46.333Z,13.5
2022-12-18T20:35:46.455Z,13.5
2022-12-18T20:45:46.349Z,13.5
2022-12-18T20:50:46.345Z,13.3
2022-12-18T21:00:46.454Z,13.4
2022-12-18T21:10:46.355Z,13.4
2022-12-18T21:30:46.485Z,13.5
2022-12-18T21:40:46.329Z,13.4
2022-12-18T21:45:46.404Z,13.4
2022-12-18T21:55:46.458Z,13.4
2022-12-18T22:05:46.332Z,13.4
2022-12-18T22:10:46.343Z,13.3
2022-12-18T22:20:46.466Z,13.3
2022-12-18T22:25:46.352Z,13.3
2022-12-18T22:50:46.449Z,13.1
2022-12-18T22:55:46.331Z,13.1
2022-12-18T23:00:46.346Z,13.1
2022-12-18T23:10:46.453Z,13.1
2022-12-18T23:20:46.338Z,13.1
2022-12-18T23:30:46.478Z,13
2022-12-18T23:40:46.353Z,13
2022-12-18T23:45:48.900Z,13
